Ar-Tux, Xinjiang Uygur

11:36 PM CST on September 16, 2014 (GMT +0800)
Kashi | Change Station
CLOSE
Current Station
Airport
Location: Kashi,
Elevation: 4528 ft
Nearby Weather Stations

Elev 4528 ft 39.54 °N, 76.02 °E | Updated 36 minutes ago

Clear
Clear
73 °F
Feels Like 73 °F
N
2
Wind Variable Wind from Variable

Today
High -- | Low -- °F
--% Chance of Precip.
Yesterday
High -- | Low -- °F
Precip. -- in
8:36 AM 9:02 PM
Last Quarter, 44% visible
Pressure 29.98 in
Visibility -9999.0 miles
Clouds
Dew Point 39 °F
Humidity 29%
Rainfall 0.00 in
Snow Depth Not available.
UV Not available.
Pollen Not available.
Air Quality Not available.
Flu Activity Not available.
METAR ZWSH 161500Z VRB01MPS CAVOK 23/04 Q1015 NOSIG

More Conditions Fewer Conditions

Pressure 29.98 in
Visibility -9999.0 miles
Clouds
Dew Point 39 °F
Humidity 29%
Rainfall 0.00 in
Snow Depth Not available.
UV Not available.
Pollen Not available.
Air Quality Not available.
Flu Activity Not available.
METAR ZWSH 161500Z VRB01MPS CAVOK 23/04 Q1015 NOSIG

More Conditions Fewer Conditions

10-Day Weather Forecast

Almanac

Astronomy

Sep. 16, 2014 Rise Set
Actual Time 8:36 AM CST 9:02 PM CST
Civil Twilight 8:09 AM CST 9:29 PM CST
Nautical Twilight 7:38 AM CST 10:01 PM CST
Astronomical Twilight 7:05 AM CST 10:34 PM CST
Moon 1:25 AM CST 4:02 PM CST
Length of Visible Light 13h 20m
Length of Day
12h 26m
Tomorrow will be 2m 34s shorter.
Last Quarter, 44% of the Moon is Illuminated
Today
Last Quarter
Sep 24
New
Oct 1
First Quarter
Oct 8
Full
Oct 15
Last Quarter

Today's Extremes

Country Highs Country Lows

Community

WunderPhotos

Upload Photos

1,753,810 photos uploaded!

Nearby

Snow Depth

Not available.

Earthquake Activity

City Distance Mag. Time & Date
No recent earthquake activity has been reported nearby.
Minimum magnitude displayed is 2.5.

Coastal Water Temperatures

Place Temperature
No Stations Reporting

Nearby Weather Stations